sensor_id;sensor_type;location;lat;lon;timestamp;P1;durP1;ratioP1;P2;durP2;ratioP2
65715;SDS011;63484;52.054;8.518;2023-03-24T00:04:04;4.03;;;1.40;;
65715;SDS011;63484;52.054;8.518;2023-03-24T00:09:06;3.13;;;1.50;;
65715;SDS011;63484;52.054;8.518;2023-03-24T00:14:07;4.03;;;1.70;;
65715;SDS011;63484;52.054;8.518;2023-03-24T00:19:12;4.18;;;1.65;;
65715;SDS011;63484;52.054;8.518;2023-03-24T00:24:14;5.23;;;1.67;;
65715;SDS011;63484;52.054;8.518;2023-03-24T00:29:15;5.18;;;1.70;;
65715;SDS011;63484;52.054;8.518;2023-03-24T00:34:18;3.45;;;1.27;;
65715;SDS011;63484;52.054;8.518;2023-03-24T00:39:21;4.90;;;1.48;;
65715;SDS011;63484;52.054;8.518;2023-03-24T00:44:23;4.90;;;1.55;;
65715;SDS011;63484;52.054;8.518;2023-03-24T00:49:26;4.93;;;1.52;;
65715;SDS011;63484;52.054;8.518;2023-03-24T00:54:42;3.40;;;1.40;;
65715;SDS011;63484;52.054;8.518;2023-03-24T00:59:45;3.10;;;1.47;;
65715;SDS011;63484;52.054;8.518;2023-03-24T01:04:52;7.43;;;1.70;;
65715;SDS011;63484;52.054;8.518;2023-03-24T01:09:54;3.15;;;1.42;;
65715;SDS011;63484;52.054;8.518;2023-03-24T01:14:57;4.60;;;1.50;;
65715;SDS011;63484;52.054;8.518;2023-03-24T01:20:01;2.60;;;1.47;;
65715;SDS011;63484;52.054;8.518;2023-03-24T01:25:07;2.88;;;1.38;;
65715;SDS011;63484;52.054;8.518;2023-03-24T01:30:10;3.28;;;1.30;;
65715;SDS011;63484;52.054;8.518;2023-03-24T01:35:14;3.08;;;1.42;;
65715;SDS011;63484;52.054;8.518;2023-03-24T01:40:18;3.37;;;1.47;;
65715;SDS011;63484;52.054;8.518;2023-03-24T01:51:05;4.30;;;1.30;;
65715;SDS011;63484;52.054;8.518;2023-03-24T01:56:10;2.85;;;1.48;;
65715;SDS011;63484;52.054;8.518;2023-03-24T02:01:15;2.03;;;1.17;;
65715;SDS011;63484;52.054;8.518;2023-03-24T02:06:39;3.55;;;1.40;;
65715;SDS011;63484;52.054;8.518;2023-03-24T02:11:43;2.95;;;1.20;;
65715;SDS011;63484;52.054;8.518;2023-03-24T02:16:53;3.00;;;1.20;;
65715;SDS011;63484;52.054;8.518;2023-03-24T02:27:45;2.63;;;1.70;;
65715;SDS011;63484;52.054;8.518;2023-03-24T02:38:45;2.28;;;1.60;;
65715;SDS011;63484;52.054;8.518;2023-03-24T02:44:12;4.53;;;1.60;;
65715;SDS011;63484;52.054;8.518;2023-03-24T02:49:21;2.53;;;1.52;;
65715;SDS011;63484;52.054;8.518;2023-03-24T02:54:32;3.80;;;1.70;;
65715;SDS011;63484;52.054;8.518;2023-03-24T02:59:43;2.60;;;1.70;;
65715;SDS011;63484;52.054;8.518;2023-03-24T03:05:18;3.20;;;1.85;;
65715;SDS011;63484;52.054;8.518;2023-03-24T03:10:28;3.28;;;1.60;;
65715;SDS011;63484;52.054;8.518;2023-03-24T03:15:36;2.92;;;1.77;;
65715;SDS011;63484;52.054;8.518;2023-03-24T03:20:42;3.45;;;1.70;;
65715;SDS011;63484;52.054;8.518;2023-03-24T03:25:50;2.83;;;1.42;;
65715;SDS011;63484;52.054;8.518;2023-03-24T03:31:07;3.63;;;1.90;;
65715;SDS011;63484;52.054;8.518;2023-03-24T03:36:15;3.08;;;1.83;;
65715;SDS011;63484;52.054;8.518;2023-03-24T03:41:22;3.67;;;2.42;;
65715;SDS011;63484;52.054;8.518;2023-03-24T03:46:25;5.13;;;2.10;;
65715;SDS011;63484;52.054;8.518;2023-03-24T03:51:28;2.97;;;2.20;;
65715;SDS011;63484;52.054;8.518;2023-03-24T03:56:31;3.90;;;2.35;;
65715;SDS011;63484;52.054;8.518;2023-03-24T04:02:00;3.65;;;2.50;;
65715;SDS011;63484;52.054;8.518;2023-03-24T04:07:11;3.15;;;2.08;;
65715;SDS011;63484;52.054;8.518;2023-03-24T04:12:39;4.50;;;2.50;;
65715;SDS011;63484;52.054;8.518;2023-03-24T04:23:32;4.07;;;2.45;;
65715;SDS011;63484;52.054;8.518;2023-03-24T04:28:44;3.83;;;2.30;;
65715;SDS011;63484;52.054;8.518;2023-03-24T04:33:59;2.50;;;1.80;;
65715;SDS011;63484;52.054;8.518;2023-03-24T04:39:05;3.75;;;2.20;;
65715;SDS011;63484;52.054;8.518;2023-03-24T04:44:13;2.97;;;2.13;;
65715;SDS011;63484;52.054;8.518;2023-03-24T04:49:37;6.53;;;2.30;;
65715;SDS011;63484;52.054;8.518;2023-03-24T04:54:38;4.35;;;2.50;;
65715;SDS011;63484;52.054;8.518;2023-03-24T04:59:40;3.70;;;2.30;;
65715;SDS011;63484;52.054;8.518;2023-03-24T05:04:44;3.63;;;2.35;;
65715;SDS011;63484;52.054;8.518;2023-03-24T05:10:07;4.57;;;2.22;;
65715;SDS011;63484;52.054;8.518;2023-03-24T05:15:16;4.63;;;2.35;;
65715;SDS011;63484;52.054;8.518;2023-03-24T05:20:21;4.80;;;2.35;;
65715;SDS011;63484;52.054;8.518;2023-03-24T05:25:24;1.98;;;1.77;;
65715;SDS011;63484;52.054;8.518;2023-03-24T05:30:26;5.20;;;2.17;;
65715;SDS011;63484;52.054;8.518;2023-03-24T05:35:39;3.90;;;2.53;;
65715;SDS011;63484;52.054;8.518;2023-03-24T05:40:41;5.03;;;2.38;;
65715;SDS011;63484;52.054;8.518;2023-03-24T05:45:51;3.58;;;2.45;;
65715;SDS011;63484;52.054;8.518;2023-03-24T05:51:02;3.15;;;1.73;;
65715;SDS011;63484;52.054;8.518;2023-03-24T05:56:04;3.00;;;1.37;;
65715;SDS011;63484;52.054;8.518;2023-03-24T06:01:29;3.42;;;2.35;;
65715;SDS011;63484;52.054;8.518;2023-03-24T06:06:42;4.22;;;2.55;;
65715;SDS011;63484;52.054;8.518;2023-03-24T06:11:46;7.00;;;3.13;;
65715;SDS011;63484;52.054;8.518;2023-03-24T06:16:48;3.95;;;3.13;;
65715;SDS011;63484;52.054;8.518;2023-03-24T06:21:52;4.07;;;2.70;;
65715;SDS011;63484;52.054;8.518;2023-03-24T06:26:58;5.18;;;3.05;;
65715;SDS011;63484;52.054;8.518;2023-03-24T06:32:03;2.80;;;1.90;;
65715;SDS011;63484;52.054;8.518;2023-03-24T06:37:12;2.25;;;0.80;;
65715;SDS011;63484;52.054;8.518;2023-03-24T06:47:18;2.30;;;0.50;;
65715;SDS011;63484;52.054;8.518;2023-03-24T06:52:21;2.30;;;0.60;;
65715;SDS011;63484;52.054;8.518;2023-03-24T06:57:24;3.22;;;0.52;;
65715;SDS011;63484;52.054;8.518;2023-03-24T07:03:01;2.40;;;0.70;;
65715;SDS011;63484;52.054;8.518;2023-03-24T07:08:04;2.67;;;0.70;;
65715;SDS011;63484;52.054;8.518;2023-03-24T07:13:11;3.05;;;1.08;;
65715;SDS011;63484;52.054;8.518;2023-03-24T07:18:14;2.47;;;0.85;;
65715;SDS011;63484;52.054;8.518;2023-03-24T07:23:24;2.10;;;0.88;;
65715;SDS011;63484;52.054;8.518;2023-03-24T07:28:45;4.50;;;1.20;;
65715;SDS011;63484;52.054;8.518;2023-03-24T07:33:52;4.13;;;0.98;;
65715;SDS011;63484;52.054;8.518;2023-03-24T07:38:55;4.88;;;1.05;;
65715;SDS011;63484;52.054;8.518;2023-03-24T07:44:03;5.75;;;1.30;;
65715;SDS011;63484;52.054;8.518;2023-03-24T07:49:07;5.35;;;1.50;;
65715;SDS011;63484;52.054;8.518;2023-03-24T07:54:10;4.60;;;1.77;;
65715;SDS011;63484;52.054;8.518;2023-03-24T07:59:17;3.75;;;1.50;;
65715;SDS011;63484;52.054;8.518;2023-03-24T08:04:24;6.85;;;1.42;;
65715;SDS011;63484;52.054;8.518;2023-03-24T08:09:31;8.15;;;1.98;;
65715;SDS011;63484;52.054;8.518;2023-03-24T08:14:32;6.32;;;1.85;;
65715;SDS011;63484;52.054;8.518;2023-03-24T08:19:34;5.85;;;1.58;;
65715;SDS011;63484;52.054;8.518;2023-03-24T08:24:37;6.28;;;1.70;;
65715;SDS011;63484;52.054;8.518;2023-03-24T08:29:38;6.80;;;1.87;;
65715;SDS011;63484;52.054;8.518;2023-03-24T08:34:40;6.63;;;1.73;;
65715;SDS011;63484;52.054;8.518;2023-03-24T08:39:43;7.20;;;2.30;;
65715;SDS011;63484;52.054;8.518;2023-03-24T08:44:44;7.72;;;1.92;;
65715;SDS011;63484;52.054;8.518;2023-03-24T08:49:46;4.88;;;1.60;;
65715;SDS011;63484;52.054;8.518;2023-03-24T08:54:49;8.70;;;2.17;;
65715;SDS011;63484;52.054;8.518;2023-03-24T08:59:50;6.77;;;1.70;;
65715;SDS011;63484;52.054;8.518;2023-03-24T09:04:52;4.88;;;1.88;;
65715;SDS011;63484;52.054;8.518;2023-03-24T09:09:56;10.40;;;2.10;;
65715;SDS011;63484;52.054;8.518;2023-03-24T09:14:57;11.07;;;1.70;;
65715;SDS011;63484;52.054;8.518;2023-03-24T09:19:59;6.43;;;2.10;;
65715;SDS011;63484;52.054;8.518;2023-03-24T09:25:02;6.88;;;1.60;;
65715;SDS011;63484;52.054;8.518;2023-03-24T09:30:04;7.15;;;1.48;;
65715;SDS011;63484;52.054;8.518;2023-03-24T09:35:07;5.85;;;1.80;;
65715;SDS011;63484;52.054;8.518;2023-03-24T09:40:13;7.97;;;1.83;;
65715;SDS011;63484;52.054;8.518;2023-03-24T09:45:19;4.80;;;1.50;;
65715;SDS011;63484;52.054;8.518;2023-03-24T09:50:23;6.33;;;1.50;;
65715;SDS011;63484;52.054;8.518;2023-03-24T09:55:28;6.97;;;1.58;;
65715;SDS011;63484;52.054;8.518;2023-03-24T10:00:30;10.77;;;1.50;;
65715;SDS011;63484;52.054;8.518;2023-03-24T10:05:34;8.93;;;1.70;;
65715;SDS011;63484;52.054;8.518;2023-03-24T10:10:45;3.25;;;0.98;;
65715;SDS011;63484;52.054;8.518;2023-03-24T10:15:58;7.72;;;1.70;;
65715;SDS011;63484;52.054;8.518;2023-03-24T10:21:06;8.77;;;1.08;;
65715;SDS011;63484;52.054;8.518;2023-03-24T10:26:23;10.35;;;1.73;;
65715;SDS011;63484;52.054;8.518;2023-03-24T10:31:33;6.63;;;1.17;;
65715;SDS011;63484;52.054;8.518;2023-03-24T10:36:37;8.60;;;1.30;;
65715;SDS011;63484;52.054;8.518;2023-03-24T10:41:42;8.90;;;1.50;;
65715;SDS011;63484;52.054;8.518;2023-03-24T10:46:44;5.10;;;1.38;;
65715;SDS011;63484;52.054;8.518;2023-03-24T10:51:48;7.53;;;1.00;;
65715;SDS011;63484;52.054;8.518;2023-03-24T10:56:59;10.02;;;1.75;;
65715;SDS011;63484;52.054;8.518;2023-03-24T11:02:08;5.50;;;1.10;;
65715;SDS011;63484;52.054;8.518;2023-03-24T11:07:17;4.40;;;0.85;;
65715;SDS011;63484;52.054;8.518;2023-03-24T11:12:23;5.72;;;0.95;;
65715;SDS011;63484;52.054;8.518;2023-03-24T11:17:27;11.20;;;1.17;;
65715;SDS011;63484;52.054;8.518;2023-03-24T11:22:28;9.90;;;1.35;;
65715;SDS011;63484;52.054;8.518;2023-03-24T11:27:31;5.40;;;0.93;;
65715;SDS011;63484;52.054;8.518;2023-03-24T11:32:44;3.80;;;1.27;;
65715;SDS011;63484;52.054;8.518;2023-03-24T11:37:47;6.65;;;1.10;;
65715;SDS011;63484;52.054;8.518;2023-03-24T11:42:52;10.68;;;1.20;;
65715;SDS011;63484;52.054;8.518;2023-03-24T11:47:56;3.83;;;1.05;;
65715;SDS011;63484;52.054;8.518;2023-03-24T11:53:00;3.70;;;0.90;;
65715;SDS011;63484;52.054;8.518;2023-03-24T11:58:10;6.93;;;1.30;;
65715;SDS011;63484;52.054;8.518;2023-03-24T12:03:33;7.43;;;1.13;;
65715;SDS011;63484;52.054;8.518;2023-03-24T12:08:53;6.60;;;1.20;;
65715;SDS011;63484;52.054;8.518;2023-03-24T12:14:04;6.75;;;1.05;;
65715;SDS011;63484;52.054;8.518;2023-03-24T12:19:17;6.95;;;1.10;;
65715;SDS011;63484;52.054;8.518;2023-03-24T12:24:31;6.22;;;1.00;;
65715;SDS011;63484;52.054;8.518;2023-03-24T12:29:57;4.65;;;1.02;;
65715;SDS011;63484;52.054;8.518;2023-03-24T12:35:14;4.30;;;0.85;;
65715;SDS011;63484;52.054;8.518;2023-03-24T12:40:33;7.40;;;1.33;;
65715;SDS011;63484;52.054;8.518;2023-03-24T12:45:50;6.88;;;1.45;;
65715;SDS011;63484;52.054;8.518;2023-03-24T12:50:57;4.80;;;1.00;;
65715;SDS011;63484;52.054;8.518;2023-03-24T12:56:10;9.02;;;1.40;;
65715;SDS011;63484;52.054;8.518;2023-03-24T13:01:20;2.47;;;1.08;;
65715;SDS011;63484;52.054;8.518;2023-03-24T13:06:28;4.38;;;1.00;;
65715;SDS011;63484;52.054;8.518;2023-03-24T13:11:35;4.30;;;0.90;;
65715;SDS011;63484;52.054;8.518;2023-03-24T13:16:42;6.90;;;1.17;;
65715;SDS011;63484;52.054;8.518;2023-03-24T13:21:48;8.05;;;1.20;;
65715;SDS011;63484;52.054;8.518;2023-03-24T13:26:56;5.68;;;1.13;;
65715;SDS011;63484;52.054;8.518;2023-03-24T13:32:10;4.68;;;0.88;;
65715;SDS011;63484;52.054;8.518;2023-03-24T13:37:22;4.60;;;1.15;;
65715;SDS011;63484;52.054;8.518;2023-03-24T13:42:28;6.60;;;1.23;;
65715;SDS011;63484;52.054;8.518;2023-03-24T13:52:50;6.25;;;1.10;;
65715;SDS011;63484;52.054;8.518;2023-03-24T13:57:53;5.10;;;1.15;;
65715;SDS011;63484;52.054;8.518;2023-03-24T14:03:10;8.00;;;1.25;;
65715;SDS011;63484;52.054;8.518;2023-03-24T14:08:15;6.40;;;1.42;;
65715;SDS011;63484;52.054;8.518;2023-03-24T14:13:18;6.65;;;1.33;;
65715;SDS011;63484;52.054;8.518;2023-03-24T14:18:41;6.85;;;1.10;;
65715;SDS011;63484;52.054;8.518;2023-03-24T14:23:43;5.65;;;1.30;;
65715;SDS011;63484;52.054;8.518;2023-03-24T14:28:47;7.47;;;1.40;;
65715;SDS011;63484;52.054;8.518;2023-03-24T14:33:59;9.13;;;1.40;;
65715;SDS011;63484;52.054;8.518;2023-03-24T14:39:06;4.38;;;1.27;;
65715;SDS011;63484;52.054;8.518;2023-03-24T14:44:11;6.78;;;1.20;;
65715;SDS011;63484;52.054;8.518;2023-03-24T14:49:17;3.20;;;1.25;;
65715;SDS011;63484;52.054;8.518;2023-03-24T14:54:25;8.73;;;3.75;;
65715;SDS011;63484;52.054;8.518;2023-03-24T14:59:38;6.15;;;1.30;;
65715;SDS011;63484;52.054;8.518;2023-03-24T15:10:21;3.83;;;1.13;;
65715;SDS011;63484;52.054;8.518;2023-03-24T15:15:23;3.42;;;1.15;;
65715;SDS011;63484;52.054;8.518;2023-03-24T15:20:28;5.93;;;0.70;;
65715;SDS011;63484;52.054;8.518;2023-03-24T15:25:32;2.88;;;0.68;;
65715;SDS011;63484;52.054;8.518;2023-03-24T15:30:34;2.55;;;0.40;;
65715;SDS011;63484;52.054;8.518;2023-03-24T15:35:37;1.70;;;0.70;;
65715;SDS011;63484;52.054;8.518;2023-03-24T15:40:40;6.20;;;1.00;;
65715;SDS011;63484;52.054;8.518;2023-03-24T15:45:42;4.07;;;0.70;;
65715;SDS011;63484;52.054;8.518;2023-03-24T15:50:57;3.63;;;0.70;;
65715;SDS011;63484;52.054;8.518;2023-03-24T15:56:02;1.10;;;0.30;;
65715;SDS011;63484;52.054;8.518;2023-03-24T16:01:08;2.53;;;0.43;;
65715;SDS011;63484;52.054;8.518;2023-03-24T16:06:20;0.82;;;0.50;;
65715;SDS011;63484;52.054;8.518;2023-03-24T16:11:28;0.47;;;0.40;;
65715;SDS011;63484;52.054;8.518;2023-03-24T16:16:34;3.80;;;0.40;;
65715;SDS011;63484;52.054;8.518;2023-03-24T16:21:39;1.45;;;0.30;;
65715;SDS011;63484;52.054;8.518;2023-03-24T16:26:43;2.55;;;0.30;;
65715;SDS011;63484;52.054;8.518;2023-03-24T16:31:46;1.08;;;0.30;;
65715;SDS011;63484;52.054;8.518;2023-03-24T16:36:50;0.80;;;0.30;;
65715;SDS011;63484;52.054;8.518;2023-03-24T16:41:53;1.52;;;0.50;;
65715;SDS011;63484;52.054;8.518;2023-03-24T16:46:55;2.00;;;0.52;;
65715;SDS011;63484;52.054;8.518;2023-03-24T16:51:59;2.65;;;1.75;;
65715;SDS011;63484;52.054;8.518;2023-03-24T16:57:00;1.70;;;0.50;;
65715;SDS011;63484;52.054;8.518;2023-03-24T17:02:01;1.13;;;0.60;;
65715;SDS011;63484;52.054;8.518;2023-03-24T17:07:06;3.30;;;0.90;;
65715;SDS011;63484;52.054;8.518;2023-03-24T17:12:08;2.30;;;1.13;;
65715;SDS011;63484;52.054;8.518;2023-03-24T17:17:11;3.38;;;1.23;;
65715;SDS011;63484;52.054;8.518;2023-03-24T17:22:14;3.53;;;0.82;;
65715;SDS011;63484;52.054;8.518;2023-03-24T17:27:18;1.95;;;1.10;;
65715;SDS011;63484;52.054;8.518;2023-03-24T17:32:20;2.10;;;0.90;;
65715;SDS011;63484;52.054;8.518;2023-03-24T17:37:23;3.53;;;1.27;;
65715;SDS011;63484;52.054;8.518;2023-03-24T17:42:25;2.88;;;1.20;;
65715;SDS011;63484;52.054;8.518;2023-03-24T17:47:28;3.47;;;1.60;;
65715;SDS011;63484;52.054;8.518;2023-03-24T17:52:32;4.70;;;1.30;;
65715;SDS011;63484;52.054;8.518;2023-03-24T17:57:40;6.75;;;2.30;;
65715;SDS011;63484;52.054;8.518;2023-03-24T18:02:47;2.93;;;1.33;;
65715;SDS011;63484;52.054;8.518;2023-03-24T18:07:50;3.38;;;1.20;;
65715;SDS011;63484;52.054;8.518;2023-03-24T18:12:52;3.45;;;1.20;;
65715;SDS011;63484;52.054;8.518;2023-03-24T18:17:55;2.65;;;1.38;;
65715;SDS011;63484;52.054;8.518;2023-03-24T18:22:58;3.45;;;1.60;;
65715;SDS011;63484;52.054;8.518;2023-03-24T18:28:00;5.07;;;1.30;;
65715;SDS011;63484;52.054;8.518;2023-03-24T18:33:01;6.10;;;1.60;;
65715;SDS011;63484;52.054;8.518;2023-03-24T18:38:05;6.03;;;2.30;;
65715;SDS011;63484;52.054;8.518;2023-03-24T18:43:07;7.45;;;3.10;;
65715;SDS011;63484;52.054;8.518;2023-03-24T18:48:09;10.57;;;4.50;;
65715;SDS011;63484;52.054;8.518;2023-03-24T18:53:13;10.13;;;5.15;;
65715;SDS011;63484;52.054;8.518;2023-03-24T18:58:15;7.05;;;2.70;;
65715;SDS011;63484;52.054;8.518;2023-03-24T19:03:17;6.95;;;2.90;;
65715;SDS011;63484;52.054;8.518;2023-03-24T19:08:22;4.50;;;2.35;;
65715;SDS011;63484;52.054;8.518;2023-03-24T19:13:23;5.78;;;1.77;;
65715;SDS011;63484;52.054;8.518;2023-03-24T19:18:28;2.55;;;1.27;;
65715;SDS011;63484;52.054;8.518;2023-03-24T19:23:31;4.28;;;1.40;;
65715;SDS011;63484;52.054;8.518;2023-03-24T19:28:34;1.88;;;1.13;;
65715;SDS011;63484;52.054;8.518;2023-03-24T19:33:36;11.02;;;1.38;;
65715;SDS011;63484;52.054;8.518;2023-03-24T19:38:39;3.45;;;1.58;;
65715;SDS011;63484;52.054;8.518;2023-03-24T19:43:41;3.47;;;1.73;;
65715;SDS011;63484;52.054;8.518;2023-03-24T19:48:42;3.95;;;2.20;;
65715;SDS011;63484;52.054;8.518;2023-03-24T19:53:45;17.02;;;10.52;;
65715;SDS011;63484;52.054;8.518;2023-03-24T19:58:47;9.95;;;6.32;;
65715;SDS011;63484;52.054;8.518;2023-03-24T20:03:50;3.70;;;2.30;;
65715;SDS011;63484;52.054;8.518;2023-03-24T20:08:53;6.38;;;2.72;;
65715;SDS011;63484;52.054;8.518;2023-03-24T20:13:54;8.40;;;4.03;;
65715;SDS011;63484;52.054;8.518;2023-03-24T20:18:56;4.63;;;3.20;;
65715;SDS011;63484;52.054;8.518;2023-03-24T20:23:59;9.25;;;3.65;;
65715;SDS011;63484;52.054;8.518;2023-03-24T20:29:02;10.02;;;2.42;;
65715;SDS011;63484;52.054;8.518;2023-03-24T20:34:04;4.20;;;2.35;;
65715;SDS011;63484;52.054;8.518;2023-03-24T20:39:07;6.65;;;4.18;;
65715;SDS011;63484;52.054;8.518;2023-03-24T20:44:08;9.77;;;4.03;;
65715;SDS011;63484;52.054;8.518;2023-03-24T20:49:10;8.85;;;2.97;;
65715;SDS011;63484;52.054;8.518;2023-03-24T20:54:16;7.85;;;3.92;;
65715;SDS011;63484;52.054;8.518;2023-03-24T20:59:18;6.82;;;2.10;;
65715;SDS011;63484;52.054;8.518;2023-03-24T21:04:20;4.65;;;2.50;;
65715;SDS011;63484;52.054;8.518;2023-03-24T21:09:23;5.72;;;2.58;;
65715;SDS011;63484;52.054;8.518;2023-03-24T21:14:24;4.23;;;2.23;;
65715;SDS011;63484;52.054;8.518;2023-03-24T21:19:26;2.88;;;1.52;;
65715;SDS011;63484;52.054;8.518;2023-03-24T21:24:30;5.03;;;1.85;;
65715;SDS011;63484;52.054;8.518;2023-03-24T21:29:31;4.80;;;1.60;;
65715;SDS011;63484;52.054;8.518;2023-03-24T21:34:33;8.60;;;2.38;;
65715;SDS011;63484;52.054;8.518;2023-03-24T21:39:36;3.10;;;1.67;;
65715;SDS011;63484;52.054;8.518;2023-03-24T21:44:38;6.63;;;1.83;;
65715;SDS011;63484;52.054;8.518;2023-03-24T21:49:41;6.20;;;1.52;;
65715;SDS011;63484;52.054;8.518;2023-03-24T21:54:45;4.10;;;1.60;;
65715;SDS011;63484;52.054;8.518;2023-03-24T21:59:47;5.80;;;1.50;;
65715;SDS011;63484;52.054;8.518;2023-03-24T22:04:48;6.18;;;1.40;;
65715;SDS011;63484;52.054;8.518;2023-03-24T22:09:51;3.83;;;1.50;;
65715;SDS011;63484;52.054;8.518;2023-03-24T22:14:53;2.45;;;1.48;;
65715;SDS011;63484;52.054;8.518;2023-03-24T22:19:54;5.78;;;2.13;;
65715;SDS011;63484;52.054;8.518;2023-03-24T22:24:57;6.20;;;1.52;;
65715;SDS011;63484;52.054;8.518;2023-03-24T22:29:59;3.78;;;1.60;;
65715;SDS011;63484;52.054;8.518;2023-03-24T22:35:01;4.32;;;1.67;;
65715;SDS011;63484;52.054;8.518;2023-03-24T22:40:04;4.82;;;1.48;;
65715;SDS011;63484;52.054;8.518;2023-03-24T22:45:08;5.55;;;2.20;;
65715;SDS011;63484;52.054;8.518;2023-03-24T22:50:10;4.38;;;2.00;;
65715;SDS011;63484;52.054;8.518;2023-03-24T22:55:13;6.18;;;1.63;;
65715;SDS011;63484;52.054;8.518;2023-03-24T23:00:15;6.47;;;1.80;;
65715;SDS011;63484;52.054;8.518;2023-03-24T23:05:18;5.05;;;1.30;;
65715;SDS011;63484;52.054;8.518;2023-03-24T23:10:21;4.85;;;1.50;;
65715;SDS011;63484;52.054;8.518;2023-03-24T23:15:22;3.20;;;1.43;;
65715;SDS011;63484;52.054;8.518;2023-03-24T23:20:25;2.75;;;1.20;;
65715;SDS011;63484;52.054;8.518;2023-03-24T23:25:30;3.88;;;1.33;;
65715;SDS011;63484;52.054;8.518;2023-03-24T23:30:31;3.75;;;1.20;;
65715;SDS011;63484;52.054;8.518;2023-03-24T23:35:33;2.92;;;1.20;;
65715;SDS011;63484;52.054;8.518;2023-03-24T23:40:37;3.47;;;1.10;;
65715;SDS011;63484;52.054;8.518;2023-03-24T23:45:38;4.55;;;1.05;;
65715;SDS011;63484;52.054;8.518;2023-03-24T23:50:40;2.60;;;0.80;;
65715;SDS011;63484;52.054;8.518;2023-03-24T23:55:46;2.50;;;1.17;;
